createdAt,value
2022-11-03T00:02:48.272Z,15.6
2022-11-03T00:13:32.276Z,15.7
2022-11-03T00:19:09.651Z,15.7
2022-11-03T00:24:46.881Z,15.6
2022-11-03T00:30:23.158Z,15.6
2022-11-03T00:36:01.424Z,15.4
2022-11-03T00:41:39.333Z,15.4
2022-11-03T00:47:18.828Z,15.4
2022-11-03T00:52:28.668Z,15.4
2022-11-03T00:57:54.502Z,15.1
2022-11-03T01:03:33.345Z,14.9
2022-11-03T01:08:58.165Z,14.8
2022-11-03T01:14:20.552Z,14.8
2022-11-03T01:19:42.084Z,14.8
2022-11-03T01:25:19.628Z,14.8
2022-11-03T01:30:57.615Z,14.7
2022-11-03T01:36:34.037Z,14.7
2022-11-03T01:42:11.284Z,14.5
2022-11-03T01:47:33.495Z,14.3
2022-11-03T01:52:39.593Z,14.3
2022-11-03T01:58:16.875Z,14.1
2022-11-03T02:03:56.046Z,14.1
2022-11-03T02:09:32.765Z,13.9
2022-11-03T02:15:08.756Z,13.9
2022-11-03T02:20:47.392Z,13.9
2022-11-03T02:26:23.596Z,13.9
2022-11-03T02:32:01.356Z,14.1
2022-11-03T02:37:39.343Z,14.1
2022-11-03T02:42:44.247Z,14.1
2022-11-03T02:47:51.748Z,14.1
2022-11-03T02:53:13.526Z,14
2022-11-03T02:58:50.991Z,14
2022-11-03T03:04:29.090Z,13.9
2022-11-03T03:14:40.469Z,13.9
2022-11-03T03:20:17.383Z,13.9
2022-11-03T03:26:00.445Z,13.8
2022-11-03T03:31:36.864Z,13.7
2022-11-03T03:37:31.906Z,13.5
2022-11-03T03:42:56.065Z,13.4
2022-11-03T03:48:17.589Z,13.3
2022-11-03T03:53:23.094Z,13
2022-11-03T03:58:49.934Z,12.8
2022-11-03T04:04:12.454Z,12.7
2022-11-03T04:09:34.595Z,12.6
2022-11-03T04:14:56.765Z,12.4
2022-11-03T04:20:17.853Z,12.3
2022-11-03T04:25:54.537Z,12.1
2022-11-03T04:31:32.776Z,11.9
2022-11-03T04:37:09.251Z,11.5
2022-11-03T04:42:56.081Z,11.1
2022-11-03T04:48:33.209Z,10.8
2022-11-03T04:53:55.227Z,10.6
2022-11-03T04:59:16.970Z,10.3
2022-11-03T05:04:44.888Z,10.2
2022-11-03T05:10:11.620Z,10.1
2022-11-03T05:15:49.309Z,10.1
2022-11-03T05:21:26.837Z,9.9
2022-11-03T05:27:04.062Z,9.9
2022-11-03T05:32:41.592Z,10.1
2022-11-03T05:38:19.224Z,10.3
2022-11-03T05:44:02.292Z,10.3
2022-11-03T05:49:26.504Z,10.6
2022-11-03T05:54:52.748Z,11.1
2022-11-03T06:00:14.566Z,11.4
2022-11-03T06:05:38.353Z,11.8
2022-11-03T06:11:21.125Z,12.3
2022-11-03T06:16:43.276Z,12.8
2022-11-03T06:22:20.620Z,13.2
2022-11-03T06:27:58.178Z,13.7
2022-11-03T06:33:41.002Z,14.1
2022-11-03T06:39:18.271Z,14.4
2022-11-03T06:44:56.000Z,13.9
2022-11-03T06:50:32.975Z,14.3
2022-11-03T06:56:10.172Z,14.9
2022-11-03T07:02:21.787Z,15.3
2022-11-03T07:08:00.717Z,15.3
2022-11-03T07:13:40.167Z,15.3
2022-11-03T07:19:22.019Z,15.4
2022-11-03T07:24:59.308Z,16
2022-11-03T07:30:36.751Z,15.9
2022-11-03T07:36:55.806Z,15.9
2022-11-03T07:42:37.971Z,15.6
2022-11-03T07:48:20.901Z,15.6
2022-11-03T07:53:59.369Z,16.7
2022-11-03T07:59:37.241Z,16.8
2022-11-03T08:05:16.432Z,17.5
2022-11-03T08:10:27.349Z,17.6
2022-11-03T08:16:04.958Z,17.7
2022-11-03T08:21:42.872Z,18.9
2022-11-03T08:27:46.614Z,18.2
2022-11-03T08:39:11.302Z,19.3
2022-11-03T08:44:54.397Z,19.9
2022-11-03T08:50:41.698Z,20.1
2022-11-03T08:56:22.258Z,19.8
2022-11-03T09:02:02.683Z,20.3
2022-11-03T09:15:01.552Z,20.3
2022-11-03T09:20:09.513Z,19.6
2022-11-03T09:25:47.673Z,21
2022-11-03T09:31:43.086Z,20
2022-11-03T09:37:27.101Z,21.2
2022-11-03T09:43:26.216Z,21.8
2022-11-03T09:49:03.433Z,21.9
2022-11-03T09:54:25.821Z,21.4
2022-11-03T09:59:47.861Z,22.4
2022-11-03T10:05:27.915Z,21.7
2022-11-03T10:11:12.071Z,22.4
2022-11-03T10:16:53.286Z,22.3
2022-11-03T10:22:31.330Z,21.8
2022-11-03T10:28:14.116Z,21.8
2022-11-03T10:34:19.803Z,23.1
2022-11-03T10:39:58.925Z,22.1
2022-11-03T10:45:56.974Z,23.3
2022-11-03T10:51:45.397Z,23.9
2022-11-03T10:57:26.971Z,22.8
2022-11-03T11:03:06.727Z,23.4
2022-11-03T11:08:45.748Z,22.9
2022-11-03T11:14:07.703Z,23.7
2022-11-03T11:19:45.137Z,23.1
2022-11-03T11:25:07.855Z,23.4
2022-11-03T11:30:49.869Z,24.7
2022-11-03T11:36:32.064Z,24.8
2022-11-03T11:42:09.654Z,25.3
2022-11-03T11:47:30.764Z,25.6
2022-11-03T11:52:53.211Z,25.3
2022-11-03T11:58:51.664Z,25.6
2022-11-03T12:04:16.329Z,25.5
2022-11-03T12:09:54.427Z,25.1
2022-11-03T12:15:38.144Z,25.4
2022-11-03T12:21:06.658Z,24.9
2022-11-03T12:26:29.475Z,25.9
2022-11-03T12:32:19.880Z,25
2022-11-03T12:38:10.657Z,25.9
2022-11-03T12:43:33.423Z,24.6
2022-11-03T12:49:15.768Z,25.6
2022-11-03T12:54:59.780Z,25.3
2022-11-03T13:00:21.917Z,24.8
2022-11-03T13:06:04.133Z,25.4
2022-11-03T13:11:47.870Z,25.7
2022-11-03T13:17:29.160Z,24.8
2022-11-03T13:23:40.191Z,24.6
2022-11-03T13:29:17.679Z,24.8
2022-11-03T13:34:57.603Z,25.2
2022-11-03T13:41:11.326Z,25.2
2022-11-03T13:46:49.682Z,24.8
2022-11-03T13:56:23.768Z,24.6
2022-11-03T14:05:53.643Z,24.3
2022-11-03T14:11:32.867Z,23.6
2022-11-03T14:17:10.780Z,23.4
2022-11-03T14:23:00.338Z,22.9
2022-11-03T14:29:16.586Z,22.8
2022-11-03T14:35:00.529Z,22.1
2022-11-03T14:40:38.965Z,21.8
2022-11-03T14:46:18.393Z,21.4
2022-11-03T14:51:55.736Z,21.2
2022-11-03T14:57:33.235Z,20.6
2022-11-03T15:03:19.188Z,20.2
2022-11-03T15:08:57.020Z,19.9
2022-11-03T15:14:39.086Z,19.8
2022-11-03T15:20:21.403Z,19.7
2022-11-03T15:28:04.512Z,19.1
2022-11-03T15:33:48.781Z,18.8
2022-11-03T15:44:21.888Z,18.1
2022-11-03T15:50:03.474Z,17.8
2022-11-03T15:55:49.071Z,17.9
2022-11-03T16:01:10.362Z,17.9
2022-11-03T16:07:07.603Z,17.7
2022-11-03T16:12:38.370Z,17.4
2022-11-03T16:18:18.795Z,17.1
2022-11-03T16:28:59.405Z,16.9
2022-11-03T16:34:36.380Z,16.9
2022-11-03T16:39:59.098Z,16.8
2022-11-03T16:45:40.311Z,16.5
2022-11-03T16:51:25.865Z,16.4
2022-11-03T16:57:10.819Z,16.2
2022-11-03T17:02:50.127Z,16.1
2022-11-03T17:08:38.837Z,16.1
2022-11-03T17:14:13.245Z,15.7
2022-11-03T17:19:51.011Z,15.4
2022-11-03T17:25:28.790Z,15.1
2022-11-03T17:31:10.854Z,15.6
2022-11-03T17:36:33.388Z,15.5
2022-11-03T17:42:12.251Z,15.3
2022-11-03T17:47:49.454Z,15
2022-11-03T17:53:35.012Z,14.8
2022-11-03T17:59:22.008Z,14.3
2022-11-03T18:04:45.670Z,14.1
2022-11-03T18:10:11.813Z,14.3
2022-11-03T18:15:52.016Z,14.1
2022-11-03T18:21:14.613Z,14.3
2022-11-03T18:26:52.195Z,14.1
2022-11-03T18:32:34.727Z,14.2
2022-11-03T18:38:14.346Z,14.4
2022-11-03T18:43:52.530Z,13.8
2022-11-03T18:49:33.985Z,13.3
2022-11-03T18:54:56.448Z,13.7
2022-11-03T19:00:37.056Z,13.5
2022-11-03T19:06:04.287Z,13.1
2022-11-03T19:11:26.428Z,13.3
2022-11-03T19:17:38.788Z,13.6
2022-11-03T19:23:16.228Z,13.8
2022-11-03T19:28:55.311Z,13.8
2022-11-03T19:39:18.914Z,13.9
2022-11-03T19:45:03.439Z,14.1
2022-11-03T19:51:10.099Z,14.1
2022-11-03T19:56:38.458Z,14.1
2022-11-03T20:02:17.454Z,13.8
2022-11-03T20:07:48.014Z,12.9
2022-11-03T20:13:27.761Z,13.6
2022-11-03T20:19:07.161Z,12.4
2022-11-03T20:24:28.469Z,11.3
2022-11-03T20:29:51.507Z,10.9
2022-11-03T20:35:13.513Z,10.6
2022-11-03T20:40:20.002Z,10.6
2022-11-03T20:45:27.329Z,10.6
2022-11-03T20:50:22.795Z,10.6
2022-11-03T20:55:45.276Z,10.4
2022-11-03T21:01:09.063Z,10.5
2022-11-03T21:06:37.306Z,10.5
2022-11-03T21:12:21.425Z,10.4
2022-11-03T21:24:15.341Z,10.5
2022-11-03T21:30:31.478Z,10.1
2022-11-03T21:35:52.640Z,10
2022-11-03T21:41:30.869Z,10.2
2022-11-03T21:46:52.792Z,10.5
2022-11-03T21:52:15.509Z,10.3
2022-11-03T21:57:43.529Z,10.2
2022-11-03T22:03:07.021Z,10.4
2022-11-03T22:08:48.423Z,10.3
2022-11-03T22:14:25.598Z,9.8
2022-11-03T22:19:47.859Z,9.6
2022-11-03T22:25:24.917Z,9.8
2022-11-03T22:30:32.665Z,10.8
2022-11-03T22:36:10.046Z,10.9
2022-11-03T22:41:31.861Z,9.2
2022-11-03T22:46:55.202Z,8.8
2022-11-03T22:52:20.240Z,8.6
2022-11-03T22:57:26.783Z,8.8
2022-11-03T23:02:49.861Z,8.9
2022-11-03T23:08:04.013Z,9
2022-11-03T23:13:26.381Z,9.1
2022-11-03T23:18:32.808Z,8.9
2022-11-03T23:23:54.161Z,8.6
2022-11-03T23:29:17.178Z,8.4
2022-11-03T23:34:39.851Z,8.3
2022-11-03T23:40:02.082Z,8.1
2022-11-03T23:45:26.546Z,8.3
2022-11-03T23:50:32.427Z,8.3
2022-11-03T23:55:54.058Z,8.1
